Isabella, Oklahoma
Current Conditions -  °F | °C
As of 11:58 AM on Thursday 23 Oct 2014 (Local Time) from KEND Reporting Station
Few Clouds Few Clouds  
Wind Chill: 72°   Ceiling: Unl
Heat Index: 72°   Visibility: 10mi
Dew Point: 61°   Wind: 9mph
Humidity: 69%   Direction: 200°SSW
Pressure: 30.12"   Gusts: NA
Location:  36.24°N, 98.34°W
Report Text: KEND 231658Z 20008KT 10SM FEW045 22/16 A3012 RMK AO2A SLP193
Loading
Personal Weather Stations






























Interactive Weather Map
Tropical Storm Tracking
New forecast layout! Learn more

10-Day Weather Forecast

Advertisements
Track Severe Weather on mobile